Time,TemperatureF,DewpointF,PressureIn,WindDirection,WindDirectionDegrees,WindSpeedMPH,WindSpeedGustMPH,Humidity,HourlyPrecipIn,Conditions,Clouds,dailyrainin,SoftwareType,DateUTC
2013-04-26 00:01:00,53.6,38.7,30.22,NE,50,0.0,2.2,57,0.00,,,0.00,VWS V13.01,2013-04-26 05:01:00,
2013-04-26 00:06:00,53.8,38.5,30.22,NNE,14,0.0,2.7,56,0.00,,,0.00,VWS V13.01,2013-04-26 05:06:00,
2013-04-26 00:11:00,54.1,38.8,30.22,NE,54,2.7,2.7,56,0.00,,,0.00,VWS V13.01,2013-04-26 05:11:00,
2013-04-26 00:16:00,54.3,39.0,30.22,NE,43,3.1,3.1,56,0.00,,,0.00,VWS V13.01,2013-04-26 05:16:00,
2013-04-26 00:21:00,54.3,39.4,30.22,NE,43,0.0,0.0,57,0.00,,,0.00,VWS V13.01,2013-04-26 05:21:00,
2013-04-26 00:26:00,54.1,38.8,30.22,NNE,33,2.7,3.1,56,0.00,,,0.00,VWS V13.01,2013-04-26 05:26:00,
2013-04-26 00:31:00,54.3,39.0,30.22,NE,35,2.7,3.6,56,0.00,,,0.00,VWS V13.01,2013-04-26 05:31:00,
2013-04-26 00:36:00,54.3,39.4,30.22,NNE,13,0.0,0.0,57,0.00,,,0.00,VWS V13.01,2013-04-26 05:36:00,
2013-04-26 00:41:00,54.3,39.0,30.22,NNE,18,0.0,0.0,56,0.00,,,0.00,VWS V13.01,2013-04-26 05:41:00,
2013-04-26 00:46:00,54.1,39.2,30.22,NNE,26,2.7,3.1,57,0.00,,,0.00,VWS V13.01,2013-04-26 05:46:00,
2013-04-26 00:51:00,53.9,39.5,30.22,NNE,30,0.0,2.2,58,0.00,,,0.00,VWS V13.01,2013-04-26 05:51:00,
2013-04-26 00:56:00,53.6,39.2,30.22,NE,38,2.7,2.7,58,0.00,,,0.00,VWS V13.01,2013-04-26 05:56:00,
2013-04-26 01:01:00,53.4,39.5,30.22,NE,38,2.2,2.2,59,0.00,,,0.00,VWS V13.01,2013-04-26 06:01:00,
2013-04-26 01:06:00,53.2,39.3,30.22,NE,38,0.0,0.0,59,0.00,,,0.00,VWS V13.01,2013-04-26 06:06:00,
2013-04-26 01:11:00,53.0,40.0,30.22,NE,38,0.0,0.0,61,0.00,,,0.00,VWS V13.01,2013-04-26 06:11:00,
2013-04-26 01:16:00,52.7,39.6,30.25,NE,38,0.0,0.0,61,0.00,,,0.00,VWS V13.01,2013-04-26 06:16:00,
2013-04-26 01:21:00,52.5,39.9,30.25,NE,38,0.0,0.0,62,0.00,,,0.00,VWS V13.01,2013-04-26 06:21:00,
2013-04-26 01:26:00,52.5,39.9,30.25,NE,38,0.0,0.0,62,0.00,,,0.00,VWS V13.01,2013-04-26 06:26:00,
2013-04-26 01:31:00,52.3,40.5,30.25,NE,38,0.0,0.0,64,0.00,,,0.00,VWS V13.01,2013-04-26 06:31:00,
2013-04-26 01:36:00,52.3,39.7,30.25,NE,38,0.0,0.0,62,0.00,,,0.00,VWS V13.01,2013-04-26 06:36:00,
2013-04-26 01:41:00,52.3,40.1,30.25,NE,48,0.0,0.0,63,0.00,,,0.00,VWS V13.01,2013-04-26 06:41:00,
2013-04-26 01:46:00,52.3,40.5,30.22,NE,48,0.0,0.0,64,0.00,,,0.00,VWS V13.01,2013-04-26 06:46:00,
2013-04-26 01:51:00,52.3,40.5,30.22,NE,48,0.0,0.0,64,0.00,,,0.00,VWS V13.01,2013-04-26 06:51:00,
2013-04-26 01:56:00,52.3,40.9,30.22,NE,48,0.0,0.0,65,0.00,,,0.00,VWS V13.01,2013-04-26 06:56:00,
2013-04-26 02:01:00,52.3,41.7,30.22,NE,37,0.0,0.0,67,0.00,,,0.00,VWS V13.01,2013-04-26 07:01:00,
2013-04-26 02:06:00,52.5,40.3,30.22,NE,37,0.0,0.0,63,0.00,,,0.00,VWS V13.01,2013-04-26 07:06:00,
2013-04-26 02:11:00,53.0,41.2,30.22,NNE,27,0.0,0.0,64,0.00,,,0.00,VWS V13.01,2013-04-26 07:11:00,
2013-04-26 02:16:00,53.2,40.1,30.22,NNE,16,2.7,2.7,61,0.00,,,0.00,VWS V13.01,2013-04-26 07:16:00,
2013-04-26 02:21:00,53.6,41.3,30.22,NNE,16,0.0,0.0,63,0.00,,,0.00,VWS V13.01,2013-04-26 07:21:00,
2013-04-26 02:26:00,53.6,40.9,30.22,NNE,19,2.2,2.2,62,0.00,,,0.00,VWS V13.01,2013-04-26 07:26:00,
2013-04-26 02:31:00,53.8,40.6,30.22,NNE,19,0.0,0.0,61,0.00,,,0.00,VWS V13.01,2013-04-26 07:31:00,
2013-04-26 02:36:00,53.8,40.2,30.22,NNE,19,0.0,0.0,60,0.00,,,0.00,VWS V13.01,2013-04-26 07:36:00,
2013-04-26 02:41:00,53.6,40.0,30.22,NNE,19,0.0,0.0,60,0.00,,,0.00,VWS V13.01,2013-04-26 07:41:00,
2013-04-26 02:46:00,53.6,40.9,30.22,NNE,19,0.0,0.0,62,0.00,,,0.00,VWS V13.01,2013-04-26 07:46:00,
2013-04-26 02:51:00,53.4,40.7,30.22,NNE,19,0.0,0.0,62,0.00,,,0.00,VWS V13.01,2013-04-26 07:51:00,
2013-04-26 02:56:00,53.4,40.3,30.22,NNE,19,0.0,0.0,61,0.00,,,0.00,VWS V13.01,2013-04-26 07:56:00,
2013-04-26 03:01:00,53.4,39.9,30.22,NNE,19,0.0,0.0,60,0.00,,,0.00,VWS V13.01,2013-04-26 08:01:00,
2013-04-26 03:06:00,53.4,39.9,30.22,NE,42,0.0,0.0,60,0.00,,,0.00,VWS V13.01,2013-04-26 08:06:00,
2013-04-26 03:11:00,53.6,39.6,30.22,NE,44,0.0,0.0,59,0.00,,,0.00,VWS V13.01,2013-04-26 08:11:00,
2013-04-26 03:16:00,53.9,40.4,30.19,ENE,63,2.7,2.7,60,0.00,,,0.00,VWS V13.01,2013-04-26 08:16:00,
2013-04-26 03:21:00,53.9,40.4,30.19,NE,55,2.7,3.1,60,0.00,,,0.00,VWS V13.01,2013-04-26 08:21:00,
2013-04-26 03:26:00,53.9,40.0,30.19,ENE,71,0.0,0.0,59,0.00,,,0.00,VWS V13.01,2013-04-26 08:26:00,
2013-04-26 03:30:00,53.9,40.0,30.19,ENE,71,0.0,0.0,59,0.00,,,0.00,VWS V13.01,2013-04-26 08:30:00,
2013-04-26 03:35:00,53.9,40.0,30.19,NE,37,2.7,3.1,59,0.00,,,0.00,VWS V13.01,2013-04-26 08:35:00,
2013-04-26 03:40:00,53.9,40.0,30.19,NE,37,0.0,0.0,59,0.00,,,0.00,VWS V13.01,2013-04-26 08:40:00,
2013-04-26 03:45:00,53.9,40.4,30.19,NE,37,0.0,0.0,60,0.00,,,0.00,VWS V13.01,2013-04-26 08:45:00,
2013-04-26 03:50:00,53.9,40.0,30.19,NNE,31,4.0,4.0,59,0.00,,,0.00,VWS V13.01,2013-04-26 08:50:00,
2013-04-26 03:55:00,53.9,40.4,30.19,NE,55,0.0,2.7,60,0.00,,,0.00,VWS V13.01,2013-04-26 08:55:00,
2013-04-26 04:01:00,53.9,40.4,30.19,NE,55,0.0,2.2,60,0.00,,,0.00,VWS V13.01,2013-04-26 09:01:00,
2013-04-26 04:06:00,53.8,40.2,30.19,NNE,22,0.0,0.0,60,0.00,,,0.00,VWS V13.01,2013-04-26 09:06:00,
2013-04-26 04:11:00,53.4,39.9,30.19,ENE,66,3.1,3.6,60,0.00,,,0.00,VWS V13.01,2013-04-26 09:11:00,
2013-04-26 04:16:00,53.6,40.0,30.16,ENE,65,2.2,2.2,60,0.00,,,0.00,VWS V13.01,2013-04-26 09:16:00,
2013-04-26 04:21:00,53.6,39.6,30.16,ENE,64,2.2,2.7,59,0.00,,,0.00,VWS V13.01,2013-04-26 09:21:00,
2013-04-26 04:26:00,53.6,40.0,30.16,NE,39,0.0,3.6,60,0.00,,,0.00,VWS V13.01,2013-04-26 09:26:00,
2013-04-26 04:31:00,53.6,39.6,30.16,ENE,76,2.7,3.6,59,0.00,,,0.00,VWS V13.01,2013-04-26 09:31:00,
2013-04-26 04:36:00,53.8,39.8,30.16,ESE,104,3.6,3.6,59,0.00,,,0.00,VWS V13.01,2013-04-26 09:36:00,
2013-04-26 04:41:00,53.9,40.0,30.16,ENE,62,2.7,3.6,59,0.00,,,0.00,VWS V13.01,2013-04-26 09:41:00,
2013-04-26 04:46:00,54.1,40.1,30.19,ESE,111,4.0,4.0,59,0.00,,,0.00,VWS V13.01,2013-04-26 09:46:00,
2013-04-26 04:51:00,54.3,39.8,30.19,NE,47,4.0,4.0,58,0.00,,,0.00,VWS V13.01,2013-04-26 09:51:00,
2013-04-26 04:56:00,54.3,40.3,30.19,ENE,57,4.0,4.0,59,0.00,,,0.00,VWS V13.01,2013-04-26 09:56:00,
2013-04-26 05:01:00,54.1,40.1,30.16,ESE,109,3.1,4.0,59,0.00,,,0.00,VWS V13.01,2013-04-26 10:01:00,
2013-04-26 05:06:00,54.1,40.1,30.16,ENE,65,2.2,4.0,59,0.00,,,0.00,VWS V13.01,2013-04-26 10:06:00,
2013-04-26 05:11:00,54.1,40.6,30.16,North,8,0.0,2.7,60,0.00,,,0.00,VWS V13.01,2013-04-26 10:11:00,
2013-04-26 05:16:00,54.1,40.1,30.19,NNE,14,2.2,2.7,59,0.00,,,0.00,VWS V13.01,2013-04-26 10:16:00,
2013-04-26 05:21:00,54.1,40.1,30.19,NE,40,4.0,4.0,59,0.00,,,0.00,VWS V13.01,2013-04-26 10:21:00,
2013-04-26 05:26:00,54.1,39.7,30.19,NNE,29,4.0,4.0,58,0.00,,,0.00,VWS V13.01,2013-04-26 10:26:00,
2013-04-26 05:31:00,54.3,40.3,30.19,NNE,20,3.6,4.0,59,0.00,,,0.00,VWS V13.01,2013-04-26 10:31:00,
2013-04-26 05:36:00,54.3,40.3,30.19,NE,43,3.1,4.9,59,0.00,,,0.00,VWS V13.01,2013-04-26 10:36:00,
2013-04-26 05:41:00,54.3,40.3,30.19,ENE,57,2.7,3.6,59,0.00,,,0.00,VWS V13.01,2013-04-26 10:41:00,
2013-04-26 05:46:00,54.3,40.3,30.16,NNE,31,2.7,3.6,59,0.00,,,0.00,VWS V13.01,2013-04-26 10:46:00,
2013-04-26 05:50:00,54.3,39.8,30.16,NNE,29,2.7,3.1,58,0.00,,,0.00,VWS V13.01,2013-04-26 10:50:00,
2013-04-26 05:55:00,54.5,40.0,30.16,NNE,27,2.7,3.6,58,0.00,,,0.00,VWS V13.01,2013-04-26 10:55:00,
2013-04-26 06:00:00,54.5,40.0,30.19,NNE,23,3.1,3.1,58,0.00,,,0.00,VWS V13.01,2013-04-26 11:00:00,
2013-04-26 06:05:00,54.5,40.0,30.19,NE,45,3.1,3.6,58,0.00,,,0.00,VWS V13.01,2013-04-26 11:05:00,
2013-04-26 06:10:00,54.5,40.0,30.19,NE,37,3.1,3.6,58,0.00,,,0.00,VWS V13.01,2013-04-26 11:10:00,
2013-04-26 06:15:00,54.5,40.0,30.16,NNE,21,0.0,2.2,58,0.00,,,0.00,VWS V13.01,2013-04-26 11:15:00,
2013-04-26 06:20:00,54.5,40.0,30.16,NE,39,4.0,4.0,58,0.00,,,0.00,VWS V13.01,2013-04-26 11:20:00,
2013-04-26 06:25:00,54.5,40.0,30.16,NE,36,3.6,4.9,58,0.00,,,0.00,VWS V13.01,2013-04-26 11:25:00,
2013-04-26 06:30:00,54.7,40.2,30.19,NNE,12,3.1,6.3,58,0.00,,,0.00,VWS V13.01,2013-04-26 11:30:00,
2013-04-26 06:35:00,54.7,40.2,30.19,NNE,26,3.6,4.0,58,0.00,,,0.00,VWS V13.01,2013-04-26 11:35:00,
2013-04-26 06:40:00,54.7,40.2,30.19,NE,43,3.1,4.0,58,0.00,,,0.00,VWS V13.01,2013-04-26 11:40:00,
2013-04-26 06:45:00,54.7,40.2,30.19,ENE,60,4.9,4.9,58,0.00,,,0.00,VWS V13.01,2013-04-26 11:45:00,
2013-04-26 06:50:00,54.7,39.7,30.19,East,94,2.7,3.6,57,0.00,,,0.00,VWS V13.01,2013-04-26 11:50:00,
2013-04-26 06:55:00,54.8,40.4,30.19,ENE,68,3.6,5.8,58,0.00,,,0.00,VWS V13.01,2013-04-26 11:55:00,
2013-04-26 07:00:00,54.8,39.9,30.19,ENE,60,3.6,4.0,57,0.00,,,0.00,VWS V13.01,2013-04-26 12:00:00,
2013-04-26 07:05:00,54.8,40.4,30.19,ENE,71,5.8,5.8,58,0.00,,,0.00,VWS V13.01,2013-04-26 12:05:00,
2013-04-26 07:10:00,55.0,40.1,30.19,NE,44,5.8,6.3,57,0.00,,,0.00,VWS V13.01,2013-04-26 12:10:00,
2013-04-26 07:15:00,55.2,40.2,30.19,NE,35,7.6,7.6,57,0.00,,,0.00,VWS V13.01,2013-04-26 12:15:00,
2013-04-26 07:20:00,55.4,40.4,30.19,NE,43,6.3,6.3,57,0.00,,,0.00,VWS V13.01,2013-04-26 12:20:00,
2013-04-26 07:25:00,55.4,40.4,30.19,NE,38,3.6,5.8,57,0.00,,,0.00,VWS V13.01,2013-04-26 12:25:00,
2013-04-26 07:30:00,55.6,40.1,30.22,ENE,67,5.4,5.4,56,0.00,,,0.00,VWS V13.01,2013-04-26 12:30:00,
2013-04-26 07:35:00,55.7,40.3,30.22,NE,45,4.9,4.9,56,0.00,,,0.00,VWS V13.01,2013-04-26 12:35:00,
2013-04-26 07:40:00,55.9,40.5,30.22,NNE,31,3.1,4.9,56,0.00,,,0.00,VWS V13.01,2013-04-26 12:40:00,
2013-04-26 07:45:00,56.1,40.2,30.19,ENE,57,5.8,8.1,55,0.00,,,0.00,VWS V13.01,2013-04-26 12:45:00,
2013-04-26 07:50:00,56.1,40.6,30.19,NNE,33,3.6,5.4,56,0.00,,,0.00,VWS V13.01,2013-04-26 12:50:00,
2013-04-26 07:55:00,56.1,40.6,30.19,ENE,74,5.8,5.8,56,0.00,,,0.00,VWS V13.01,2013-04-26 12:55:00,
2013-04-26 08:00:00,56.3,40.8,30.22,NE,53,3.1,4.9,56,0.00,,,0.00,VWS V13.01,2013-04-26 13:00:00,
2013-04-26 08:05:00,56.3,40.8,30.22,NE,35,4.0,5.4,56,0.00,,,0.00,VWS V13.01,2013-04-26 13:05:00,
2013-04-26 08:10:00,56.1,41.1,30.22,NE,48,2.7,2.7,57,0.00,,,0.00,VWS V13.01,2013-04-26 13:10:00,
2013-04-26 08:15:00,56.1,40.6,30.22,NNE,26,4.0,4.5,56,0.00,,,0.00,VWS V13.01,2013-04-26 13:15:00,
2013-04-26 08:20:00,56.3,41.3,30.22,NNE,17,3.1,4.0,57,0.00,,,0.00,VWS V13.01,2013-04-26 13:20:00,
2013-04-26 08:25:00,56.1,41.5,30.22,NNE,26,3.1,4.0,58,0.00,,,0.00,VWS V13.01,2013-04-26 13:25:00,
2013-04-26 08:30:00,56.1,41.1,30.22,NE,36,3.1,3.6,57,0.00,,,0.00,VWS V13.01,2013-04-26 13:30:00,
2013-04-26 08:35:00,56.3,41.7,30.22,ENE,68,3.6,4.0,58,0.00,,,0.00,VWS V13.01,2013-04-26 13:35:00,
2013-04-26 08:40:00,56.3,41.3,30.22,NNE,24,4.9,4.9,57,0.00,,,0.00,VWS V13.01,2013-04-26 13:40:00,
2013-04-26 08:45:00,56.3,41.3,30.22,ENE,62,2.7,3.6,57,0.00,,,0.00,VWS V13.01,2013-04-26 13:45:00,
2013-04-26 08:50:00,56.5,41.4,30.22,North,9,5.4,5.4,57,0.00,,,0.00,VWS V13.01,2013-04-26 13:50:00,
2013-04-26 08:55:00,56.5,41.0,30.22,NE,36,5.8,5.8,56,0.00,,,0.00,VWS V13.01,2013-04-26 13:55:00,
2013-04-26 09:00:00,56.5,41.0,30.19,ENE,70,6.3,6.3,56,0.00,,,0.00,VWS V13.01,2013-04-26 14:00:00,
2013-04-26 09:05:00,56.5,41.0,30.19,ENE,73,4.9,6.3,56,0.00,,,0.00,VWS V13.01,2013-04-26 14:05:00,
2013-04-26 09:10:00,56.5,41.0,30.19,NE,50,5.4,5.4,56,0.00,,,0.00,VWS V13.01,2013-04-26 14:10:00,
2013-04-26 09:15:00,56.6,41.6,30.19,ENE,60,4.5,5.4,57,0.00,,,0.00,VWS V13.01,2013-04-26 14:15:00,
2013-04-26 09:20:00,56.8,41.8,30.19,NE,56,4.9,5.8,57,0.00,,,0.00,VWS V13.01,2013-04-26 14:20:00,
2013-04-26 09:25:00,57.0,41.0,30.19,ENE,65,5.8,5.8,55,0.00,,,0.00,VWS V13.01,2013-04-26 14:25:00,
2013-04-26 09:30:00,57.0,40.5,30.19,East,84,7.6,7.6,54,0.00,,,0.00,VWS V13.01,2013-04-26 14:30:00,
2013-04-26 09:35:00,57.0,40.5,30.19,ESE,119,8.7,8.7,54,0.00,,,0.00,VWS V13.01,2013-04-26 14:35:00,
2013-04-26 09:40:00,57.0,40.5,30.19,ENE,72,3.1,3.1,54,0.00,,,0.00,VWS V13.01,2013-04-26 14:40:00,
2013-04-26 09:45:00,57.0,40.5,30.19,ENE,62,9.6,9.6,54,0.00,,,0.00,VWS V13.01,2013-04-26 14:45:00,
2013-04-26 09:50:00,56.8,40.8,30.19,NE,50,5.8,5.8,55,0.00,,,0.00,VWS V13.01,2013-04-26 14:50:00,
2013-04-26 09:55:00,56.8,40.8,30.19,NE,56,2.7,2.7,55,0.00,,,0.00,VWS V13.01,2013-04-26 14:55:00,
2013-04-26 10:00:00,56.6,40.7,30.19,SSE,147,5.8,5.8,55,0.00,,,0.00,VWS V13.01,2013-04-26 15:00:00,
2013-04-26 10:05:00,56.5,40.5,30.19,ENE,71,3.6,5.8,55,0.00,,,0.00,VWS V13.01,2013-04-26 15:05:00,
2013-04-26 10:10:00,56.5,40.5,30.19,North,353,5.4,5.4,55,0.00,,,0.00,VWS V13.01,2013-04-26 15:10:00,
2013-04-26 10:15:00,56.3,40.3,30.19,NNE,32,2.7,2.7,55,0.00,,,0.00,VWS V13.01,2013-04-26 15:15:00,
2013-04-26 10:20:00,56.5,40.5,30.19,NE,34,6.3,6.3,55,0.00,,,0.00,VWS V13.01,2013-04-26 15:20:00,
2013-04-26 10:25:00,55.0,42.7,30.19,NNE,25,4.9,5.8,63,0.04,,,0.04,VWS V13.01,2013-04-26 15:25:00,
2013-04-26 10:30:00,53.8,43.1,30.22,NNW,333,3.6,4.0,67,0.04,,,0.04,VWS V13.01,2013-04-26 15:30:00,
2013-04-26 10:35:00,53.0,43.2,30.22,NW,323,4.0,4.0,69,0.04,,,0.04,VWS V13.01,2013-04-26 15:35:00,
2013-04-26 10:40:00,52.7,43.5,30.22,ENE,65,5.8,8.1,71,0.04,,,0.04,VWS V13.01,2013-04-26 15:40:00,
2013-04-26 10:45:00,51.1,46.4,30.22,ENE,63,4.0,6.3,84,0.24,,,0.24,VWS V13.01,2013-04-26 15:45:00,
2013-04-26 10:50:00,50.3,46.0,30.22,ENE,65,2.7,4.9,85,0.24,,,0.24,VWS V13.01,2013-04-26 15:50:00,
2013-04-26 10:55:00,49.8,46.1,30.22,NE,42,5.8,7.6,87,0.24,,,0.24,VWS V13.01,2013-04-26 15:55:00,
2013-04-26 11:00:00,49.8,46.7,30.25,NE,46,5.8,8.1,89,0.24,,,0.24,VWS V13.01,2013-04-26 16:00:00,
2013-04-26 11:05:00,49.6,46.2,30.25,NNE,22,8.1,12.8,88,0.28,,,0.28,VWS V13.01,2013-04-26 16:05:00,
2013-04-26 11:10:00,49.8,47.0,30.25,NE,50,6.3,6.3,90,0.28,,,0.28,VWS V13.01,2013-04-26 16:10:00,
2013-04-26 11:15:00,49.8,46.4,30.25,NE,47,8.1,9.2,88,0.28,,,0.28,VWS V13.01,2013-04-26 16:15:00,
2013-04-26 11:20:00,49.8,46.4,30.25,East,82,3.6,7.2,88,0.28,,,0.28,VWS V13.01,2013-04-26 16:20:00,
2013-04-26 11:25:00,49.8,45.5,30.25,NNE,30,7.2,10.1,85,0.28,,,0.28,VWS V13.01,2013-04-26 16:25:00,
2013-04-26 11:30:00,49.8,45.5,30.25,NE,39,5.8,6.3,85,0.24,,,0.28,VWS V13.01,2013-04-26 16:30:00,
2013-04-26 11:35:00,50.2,44.9,30.25,NNE,31,11.4,11.4,82,0.24,,,0.28,VWS V13.01,2013-04-26 16:35:00,
2013-04-26 11:40:00,50.3,45.1,30.25,NE,39,5.8,8.1,82,0.24,,,0.28,VWS V13.01,2013-04-26 16:40:00,
2013-04-26 11:45:00,50.3,45.7,30.25,ENE,74,5.4,5.4,84,0.08,,,0.28,VWS V13.01,2013-04-26 16:45:00,
2013-04-26 11:49:00,50.2,45.8,30.25,ENE,64,7.6,8.7,85,0.04,,,0.28,VWS V13.01,2013-04-26 16:49:00,
2013-04-26 11:54:00,50.2,46.1,30.25,NNE,20,6.3,6.3,86,0.04,,,0.28,VWS V13.01,2013-04-26 16:54:00,
2013-04-26 11:59:00,50.3,45.1,30.25,NE,44,6.3,7.6,82,0.04,,,0.28,VWS V13.01,2013-04-26 16:59:00,
2013-04-26 12:04:00,50.3,44.7,30.25,North,5,5.8,6.3,81,0.00,,,0.28,VWS V13.01,2013-04-26 17:04:00,
2013-04-26 12:09:00,50.3,45.4,30.25,North,4,8.1,8.1,83,0.00,,,0.28,VWS V13.01,2013-04-26 17:09:00,
2013-04-26 12:14:00,50.5,44.3,30.25,NE,37,8.3,10.5,79,0.00,,,0.28,VWS V13.01,2013-04-26 17:14:00,
2013-04-26 12:19:00,50.7,44.4,30.25,NNE,25,5.8,7.6,79,0.00,,,0.28,VWS V13.01,2013-04-26 17:19:00,
2013-04-26 12:24:00,50.7,44.4,30.25,East,84,2.7,5.8,79,0.00,,,0.28,VWS V13.01,2013-04-26 17:24:00,
2013-04-26 12:29:00,50.7,43.8,30.25,NE,53,8.7,8.7,77,0.00,,,0.28,VWS V13.01,2013-04-26 17:29:00,
2013-04-26 12:34:00,51.1,44.1,30.25,NNE,27,7.6,7.6,77,0.00,,,0.28,VWS V13.01,2013-04-26 17:34:00,
2013-04-26 12:39:00,51.2,43.6,30.25,North,7,8.1,8.1,75,0.00,,,0.28,VWS V13.01,2013-04-26 17:39:00,
2013-04-26 12:44:00,51.1,43.1,30.22,NNE,27,12.3,12.3,74,0.00,,,0.28,VWS V13.01,2013-04-26 17:44:00,
2013-04-26 12:49:00,51.2,43.6,30.22,NE,52,6.3,6.3,75,0.00,,,0.28,VWS V13.01,2013-04-26 17:49:00,
2013-04-26 12:54:00,51.4,43.8,30.22,NE,53,6.3,8.3,75,0.00,,,0.28,VWS V13.01,2013-04-26 17:54:00,
2013-04-26 12:59:00,51.6,43.2,30.25,NNE,14,9.2,9.2,73,0.00,,,0.28,VWS V13.01,2013-04-26 17:59:00,
2013-04-26 13:04:00,51.6,43.2,30.25,NNW,347,7.6,10.5,73,0.00,,,0.28,VWS V13.01,2013-04-26 18:04:00,
2013-04-26 13:09:00,52.0,42.5,30.25,ENE,64,5.8,7.6,70,0.00,,,0.28,VWS V13.01,2013-04-26 18:09:00,
2013-04-26 13:14:00,52.0,43.6,30.22,NE,56,3.6,6.3,73,0.00,,,0.28,VWS V13.01,2013-04-26 18:14:00,
2013-04-26 13:19:00,51.8,43.0,30.22,NE,38,5.8,7.2,72,0.00,,,0.28,VWS V13.01,2013-04-26 18:19:00,
2013-04-26 13:24:00,52.0,43.9,30.22,ENE,61,3.6,3.6,74,0.00,,,0.28,VWS V13.01,2013-04-26 18:24:00,
2013-04-26 13:29:00,51.8,44.5,30.22,NE,43,5.8,6.3,76,0.00,,,0.28,VWS V13.01,2013-04-26 18:29:00,
2013-04-26 13:34:00,51.6,44.6,30.22,NE,40,4.9,4.9,77,0.00,,,0.28,VWS V13.01,2013-04-26 18:34:00,
2013-04-26 13:39:00,51.8,45.8,30.22,NE,38,5.8,5.8,80,0.00,,,0.28,VWS V13.01,2013-04-26 18:39:00,
2013-04-26 13:44:00,52.0,45.0,30.22,NE,49,4.0,5.4,77,0.00,,,0.28,VWS V13.01,2013-04-26 18:44:00,
2013-04-26 13:49:00,52.0,44.6,30.22,NNE,27,6.3,6.3,76,0.00,,,0.28,VWS V13.01,2013-04-26 18:49:00,
2013-04-26 13:54:00,52.1,45.2,30.22,North,7,6.3,6.3,77,0.00,,,0.28,VWS V13.01,2013-04-26 18:54:00,
2013-04-26 13:59:00,52.0,44.6,30.22,East,82,3.1,6.3,76,0.00,,,0.28,VWS V13.01,2013-04-26 18:59:00,
2013-04-26 14:04:00,52.1,45.5,30.22,NE,36,4.0,4.0,78,0.00,,,0.28,VWS V13.01,2013-04-26 19:04:00,
2013-04-26 14:09:00,52.1,45.2,30.22,NE,56,5.4,5.4,77,0.00,,,0.28,VWS V13.01,2013-04-26 19:09:00,
2013-04-26 14:14:00,52.0,46.3,30.22,ENE,71,3.6,4.0,81,0.00,,,0.28,VWS V13.01,2013-04-26 19:14:00,
2013-04-26 14:19:00,51.8,46.8,30.22,NE,47,2.7,3.6,83,0.00,,,0.28,VWS V13.01,2013-04-26 19:19:00,
2013-04-26 14:24:00,51.4,47.4,30.22,NNE,17,5.4,5.4,86,0.00,,,0.28,VWS V13.01,2013-04-26 19:24:00,
2013-04-26 14:29:00,51.6,48.2,30.19,NNE,33,2.7,3.1,88,0.00,,,0.28,VWS V13.01,2013-04-26 19:29:00,
2013-04-26 14:34:00,51.4,48.0,30.19,NE,47,3.6,3.6,88,0.00,,,0.28,VWS V13.01,2013-04-26 19:34:00,
2013-04-26 14:39:00,51.4,48.0,30.19,NE,56,5.4,5.4,88,0.00,,,0.28,VWS V13.01,2013-04-26 19:39:00,
2013-04-26 14:44:00,51.4,48.3,30.22,NE,53,3.1,3.1,89,0.00,,,0.28,VWS V13.01,2013-04-26 19:44:00,
2013-04-26 14:49:00,51.4,47.7,30.22,NNE,20,4.0,5.4,87,0.00,,,0.28,VWS V13.01,2013-04-26 19:49:00,
2013-04-26 14:54:00,51.6,48.2,30.22,ENE,58,4.0,4.5,88,0.00,,,0.28,VWS V13.01,2013-04-26 19:54:00,
2013-04-26 14:59:00,51.6,48.8,30.22,NE,34,4.0,4.0,90,0.00,,,0.28,VWS V13.01,2013-04-26 19:59:00,
2013-04-26 15:04:00,51.2,47.8,30.22,NNE,15,5.8,7.6,88,0.00,,,0.28,VWS V13.01,2013-04-26 20:04:00,
2013-04-26 15:09:00,51.2,48.4,30.22,NE,43,2.7,2.7,90,0.00,,,0.28,VWS V13.01,2013-04-26 20:09:00,
2013-04-26 15:14:00,51.1,48.5,30.22,ENE,64,4.0,4.0,91,0.00,,,0.28,VWS V13.01,2013-04-26 20:14:00,
2013-04-26 15:19:00,51.1,48.5,30.22,NNE,26,5.4,5.4,91,0.00,,,0.28,VWS V13.01,2013-04-26 20:19:00,
2013-04-26 15:24:00,50.9,48.3,30.22,ENE,67,5.8,5.8,91,0.00,,,0.28,VWS V13.01,2013-04-26 20:24:00,
2013-04-26 15:29:00,50.7,48.5,30.19,NE,54,4.0,5.4,92,0.00,,,0.28,VWS V13.01,2013-04-26 20:29:00,
2013-04-26 15:34:00,50.7,48.5,30.19,NNE,31,3.6,3.6,92,0.00,,,0.28,VWS V13.01,2013-04-26 20:34:00,
2013-04-26 15:39:00,50.5,48.3,30.19,ENE,62,2.7,3.1,92,0.00,,,0.28,VWS V13.01,2013-04-26 20:39:00,
2013-04-26 15:44:00,50.5,48.3,30.19,NNE,26,3.1,3.1,92,0.00,,,0.28,VWS V13.01,2013-04-26 20:44:00,
2013-04-26 15:49:00,50.5,48.3,30.19,SE,131,6.3,6.3,92,0.00,,,0.28,VWS V13.01,2013-04-26 20:49:00,
2013-04-26 15:54:00,50.5,48.3,30.19,ESE,107,5.8,5.8,92,0.00,,,0.28,VWS V13.01,2013-04-26 20:54:00,
2013-04-26 15:59:00,50.3,47.8,30.19,ENE,71,5.8,5.8,91,0.00,,,0.28,VWS V13.01,2013-04-26 20:59:00,
2013-04-26 16:04:00,50.2,48.2,30.19,ENE,74,3.1,3.1,93,0.00,,,0.28,VWS V13.01,2013-04-26 21:04:00,
2013-04-26 16:09:00,50.2,48.2,30.19,NE,42,2.7,4.0,93,0.00,,,0.28,VWS V13.01,2013-04-26 21:09:00,
2013-04-26 16:14:00,50.0,48.0,30.19,NNE,29,5.8,5.8,93,0.00,,,0.28,VWS V13.01,2013-04-26 21:14:00,
2013-04-26 16:19:00,50.0,48.0,30.19,NE,49,4.9,5.8,93,0.00,,,0.28,VWS V13.01,2013-04-26 21:19:00,
2013-04-26 16:24:00,50.0,47.8,30.19,NE,34,5.8,5.8,92,0.00,,,0.28,VWS V13.01,2013-04-26 21:24:00,
2013-04-26 16:29:00,50.0,47.8,30.16,NE,39,4.9,6.3,92,0.00,,,0.28,VWS V13.01,2013-04-26 21:29:00,
2013-04-26 16:34:00,50.0,47.8,30.16,ENE,60,4.9,4.9,92,0.00,,,0.28,VWS V13.01,2013-04-26 21:34:00,
2013-04-26 16:39:00,50.0,47.8,30.16,NE,44,5.8,5.8,92,0.00,,,0.28,VWS V13.01,2013-04-26 21:39:00,
2013-04-26 16:44:00,50.2,47.6,30.16,ENE,67,3.1,4.9,91,0.00,,,0.28,VWS V13.01,2013-04-26 21:44:00,
2013-04-26 16:49:00,50.3,47.8,30.16,ENE,67,3.6,4.9,91,0.00,,,0.28,VWS V13.01,2013-04-26 21:49:00,
2013-04-26 16:54:00,50.3,47.5,30.16,East,79,4.9,5.8,90,0.00,,,0.28,VWS V13.01,2013-04-26 21:54:00,
2013-04-26 16:59:00,50.5,47.4,30.16,NE,47,3.1,4.0,89,0.00,,,0.28,VWS V13.01,2013-04-26 21:59:00,
2013-04-26 17:04:00,50.5,47.4,30.16,NNE,21,3.6,4.0,89,0.00,,,0.28,VWS V13.01,2013-04-26 22:04:00,
2013-04-26 17:09:00,50.5,47.4,30.16,NE,45,4.0,5.4,89,0.00,,,0.28,VWS V13.01,2013-04-26 22:09:00,
2013-04-26 17:14:00,50.5,47.1,30.16,ENE,71,4.9,5.8,88,0.00,,,0.28,VWS V13.01,2013-04-26 22:14:00,
2013-04-26 17:18:00,50.5,47.1,30.16,ENE,76,3.1,4.0,88,0.00,,,0.28,VWS V13.01,2013-04-26 22:18:00,
2013-04-26 17:23:00,50.5,47.4,30.16,East,91,4.0,5.4,89,0.00,,,0.28,VWS V13.01,2013-04-26 22:23:00,
2013-04-26 17:28:00,50.5,47.4,30.16,ENE,73,5.4,5.4,89,0.00,,,0.28,VWS V13.01,2013-04-26 22:28:00,
2013-04-26 17:33:00,50.5,47.1,30.16,NE,53,4.9,5.8,88,0.00,,,0.28,VWS V13.01,2013-04-26 22:33:00,
2013-04-26 17:38:00,50.7,47.9,30.16,NE,37,5.4,5.4,90,0.00,,,0.28,VWS V13.01,2013-04-26 22:38:00,
2013-04-26 17:43:00,50.7,47.9,30.16,ENE,68,3.6,5.4,90,0.00,,,0.28,VWS V13.01,2013-04-26 22:43:00,
2013-04-26 17:48:00,50.7,48.2,30.16,ENE,72,3.6,6.3,91,0.00,,,0.28,VWS V13.01,2013-04-26 22:48:00,
2013-04-26 17:53:00,50.7,48.5,30.16,ENE,63,3.1,5.4,92,0.00,,,0.28,VWS V13.01,2013-04-26 22:53:00,
2013-04-26 17:58:00,50.7,48.5,30.16,ENE,68,3.6,4.0,92,0.00,,,0.28,VWS V13.01,2013-04-26 22:58:00,
2013-04-26 18:03:00,50.7,48.8,30.16,NE,38,3.6,3.6,93,0.00,,,0.28,VWS V13.01,2013-04-26 23:03:00,
2013-04-26 18:08:00,50.7,49.0,30.16,NNE,24,3.1,4.9,94,0.00,,,0.28,VWS V13.01,2013-04-26 23:08:00,
2013-04-26 18:13:00,50.7,49.3,30.16,ENE,66,3.1,3.6,95,0.00,,,0.28,VWS V13.01,2013-04-26 23:13:00,
2013-04-26 18:18:00,50.7,49.3,30.16,NE,49,4.0,7.6,95,0.00,,,0.28,VWS V13.01,2013-04-26 23:18:00,
2013-04-26 18:23:00,50.7,49.6,30.16,ENE,62,3.6,5.8,96,0.00,,,0.28,VWS V13.01,2013-04-26 23:23:00,
2013-04-26 18:28:00,50.5,49.7,30.16,NE,45,3.1,3.1,97,0.00,,,0.28,VWS V13.01,2013-04-26 23:28:00,
2013-04-26 18:33:00,50.5,50.2,30.16,NE,35,3.1,4.0,99,0.00,,,0.28,VWS V13.01,2013-04-26 23:33:00,
2013-04-26 18:38:00,50.5,50.2,30.16,East,96,3.6,3.6,99,0.00,,,0.28,VWS V13.01,2013-04-26 23:38:00,
2013-04-26 18:43:00,50.5,50.2,30.16,East,93,0.0,0.0,99,0.00,,,0.28,VWS V13.01,2013-04-26 23:43:00,
2013-04-26 18:48:00,50.5,50.5,30.16,ENE,65,4.0,4.0,100,0.00,,,0.28,VWS V13.01,2013-04-26 23:48:00,
2013-04-26 18:53:00,50.5,50.5,30.16,NE,49,0.0,2.7,100,0.00,,,0.28,VWS V13.01,2013-04-26 23:53:00,
2013-04-26 19:05:00,50.5,50.5,30.16,ENE,63,0.0,2.2,100,0.04,,,0.31,VWS V13.01,2013-04-27 00:05:00,
2013-04-26 19:10:00,50.5,50.5,30.16,ENE,63,2.7,2.7,100,0.04,,,0.31,VWS V13.01,2013-04-27 00:10:00,
2013-04-26 19:15:00,50.5,50.5,30.16,ENE,78,3.6,3.6,100,0.04,,,0.31,VWS V13.01,2013-04-27 00:15:00,
2013-04-26 19:20:00,50.5,50.5,30.16,ENE,60,3.1,3.1,100,0.04,,,0.31,VWS V13.01,2013-04-27 00:20:00,
2013-04-26 19:25:00,50.3,50.3,30.16,NE,49,2.2,3.6,100,0.04,,,0.31,VWS V13.01,2013-04-27 00:25:00,
2013-04-26 19:31:00,50.3,50.3,30.16,NE,47,2.7,4.0,100,0.04,,,0.31,VWS V13.01,2013-04-27 00:31:00,
2013-04-26 19:36:00,50.3,50.3,30.16,NE,51,4.0,4.9,100,0.04,,,0.31,VWS V13.01,2013-04-27 00:36:00,
2013-04-26 19:41:00,50.2,50.2,30.16,ENE,67,2.7,4.9,100,0.04,,,0.31,VWS V13.01,2013-04-27 00:41:00,
2013-04-26 19:46:00,50.2,50.2,30.16,NE,35,4.0,4.0,100,0.04,,,0.31,VWS V13.01,2013-04-27 00:46:00,
2013-04-26 19:51:00,50.2,50.2,30.16,NE,42,4.0,4.9,100,0.04,,,0.31,VWS V13.01,2013-04-27 00:51:00,
2013-04-26 19:56:00,50.2,50.2,30.16,NE,49,5.4,5.4,100,0.04,,,0.31,VWS V13.01,2013-04-27 00:56:00,
2013-04-26 20:00:00,50.2,50.2,30.13,NNE,20,5.4,5.4,100,0.00,,,0.31,VWS V13.01,2013-04-27 01:00:00,
2013-04-26 20:05:00,50.0,50.0,30.13,NNE,27,5.4,6.3,100,0.04,,,0.35,VWS V13.01,2013-04-27 01:05:00,
2013-04-26 20:10:00,50.2,50.2,30.13,NE,39,3.6,3.6,100,0.04,,,0.35,VWS V13.01,2013-04-27 01:10:00,
2013-04-26 20:15:00,50.2,50.2,30.13,NE,48,3.1,5.4,100,0.04,,,0.35,VWS V13.01,2013-04-27 01:15:00,
2013-04-26 20:20:00,50.2,50.2,30.13,NE,46,2.7,4.0,100,0.04,,,0.35,VWS V13.01,2013-04-27 01:20:00,
2013-04-26 20:25:00,50.2,50.2,30.13,NE,46,2.2,3.6,100,0.04,,,0.35,VWS V13.01,2013-04-27 01:25:00,
2013-04-26 20:30:00,50.2,50.2,30.13,NE,35,4.0,4.0,100,0.04,,,0.35,VWS V13.01,2013-04-27 01:30:00,
2013-04-26 20:35:00,50.2,50.2,30.13,NE,42,3.6,3.6,100,0.04,,,0.35,VWS V13.01,2013-04-27 01:35:00,
2013-04-26 20:40:00,50.2,50.2,30.13,NE,44,3.1,3.1,100,0.04,,,0.35,VWS V13.01,2013-04-27 01:40:00,
2013-04-26 20:45:00,50.3,50.3,30.13,ENE,65,3.6,3.6,100,0.04,,,0.35,VWS V13.01,2013-04-27 01:45:00,
2013-04-26 20:50:00,50.3,50.3,30.13,NE,43,5.4,5.4,100,0.04,,,0.35,VWS V13.01,2013-04-27 01:50:00,
2013-04-26 20:55:00,50.3,50.3,30.13,NE,35,3.6,3.6,100,0.04,,,0.35,VWS V13.01,2013-04-27 01:55:00,
2013-04-26 21:00:00,50.3,50.3,30.13,NE,35,4.0,6.3,100,0.04,,,0.35,VWS V13.01,2013-04-27 02:00:00,
2013-04-26 21:05:00,50.3,50.3,30.13,NE,40,4.0,4.9,100,0.00,,,0.35,VWS V13.01,2013-04-27 02:05:00,
2013-04-26 21:10:00,50.3,50.3,30.13,NE,36,3.1,3.1,100,0.00,,,0.35,VWS V13.01,2013-04-27 02:10:00,
2013-04-26 21:15:00,50.3,50.3,30.13,NE,39,4.0,4.0,100,0.00,,,0.35,VWS V13.01,2013-04-27 02:15:00,
2013-04-26 21:20:00,50.3,50.3,30.13,NE,35,3.1,3.1,100,0.00,,,0.35,VWS V13.01,2013-04-27 02:20:00,
2013-04-26 21:25:00,50.5,50.5,30.13,NE,42,2.7,3.6,100,0.00,,,0.35,VWS V13.01,2013-04-27 02:25:00,
2013-04-26 21:30:00,50.5,50.5,30.13,ENE,59,2.2,3.1,100,0.00,,,0.35,VWS V13.01,2013-04-27 02:30:00,
2013-04-26 21:35:00,50.5,50.5,30.13,NNE,31,2.2,2.7,100,0.00,,,0.35,VWS V13.01,2013-04-27 02:35:00,
2013-04-26 21:40:00,50.5,50.5,30.13,NNE,33,3.1,3.1,100,0.00,,,0.35,VWS V13.01,2013-04-27 02:40:00,
2013-04-26 21:45:00,50.5,50.5,30.13,NE,48,2.7,2.7,100,0.04,,,0.39,VWS V13.01,2013-04-27 02:45:00,
2013-04-26 21:50:00,50.5,50.5,30.13,NE,36,2.7,3.1,100,0.04,,,0.39,VWS V13.01,2013-04-27 02:50:00,
2013-04-26 21:55:00,50.5,50.5,30.13,NE,44,3.1,3.6,100,0.04,,,0.39,VWS V13.01,2013-04-27 02:55:00,
2013-04-26 22:00:00,50.5,50.5,30.13,NNE,26,2.7,3.1,100,0.04,,,0.39,VWS V13.01,2013-04-27 03:00:00,
2013-04-26 22:05:00,50.5,50.5,30.13,NNE,31,2.7,3.1,100,0.04,,,0.39,VWS V13.01,2013-04-27 03:05:00,
2013-04-26 22:10:00,50.5,50.5,30.13,NNE,23,2.7,2.7,100,0.04,,,0.39,VWS V13.01,2013-04-27 03:10:00,
2013-04-26 22:15:00,50.5,50.5,30.16,NNE,19,0.0,2.7,100,0.04,,,0.39,VWS V13.01,2013-04-27 03:15:00,
2013-04-26 22:20:00,50.5,50.5,30.16,NNW,334,0.0,0.0,100,0.04,,,0.39,VWS V13.01,2013-04-27 03:20:00,
2013-04-26 22:25:00,50.5,50.5,30.16,NNE,28,2.2,3.6,100,0.04,,,0.39,VWS V13.01,2013-04-27 03:25:00,
2013-04-26 22:30:00,50.5,50.5,30.16,NNE,16,2.7,2.7,100,0.04,,,0.39,VWS V13.01,2013-04-27 03:30:00,
2013-04-26 22:35:00,50.7,50.7,30.16,NNE,15,0.0,0.0,100,0.04,,,0.39,VWS V13.01,2013-04-27 03:35:00,
2013-04-26 22:40:00,50.7,50.7,30.16,NE,45,0.0,0.0,100,0.04,,,0.39,VWS V13.01,2013-04-27 03:40:00,
2013-04-26 22:45:00,50.7,50.7,30.13,NE,36,0.0,0.0,100,0.04,,,0.39,VWS V13.01,2013-04-27 03:45:00,
2013-04-26 22:50:00,50.7,50.7,30.13,NNE,29,0.0,0.0,100,0.00,,,0.39,VWS V13.01,2013-04-27 03:50:00,
2013-04-26 22:55:00,50.7,50.7,30.13,NW,322,2.7,4.5,100,0.00,,,0.39,VWS V13.01,2013-04-27 03:55:00,
2013-04-26 23:00:00,50.9,50.9,30.13,NW,319,0.0,0.0,100,0.00,,,0.39,VWS V13.01,2013-04-27 04:00:00,
2013-04-26 23:01:00,50.9,50.9,30.13,NW,322,0.0,0.0,100,0.00,,,0.39,VWS V13.01,2013-04-27 04:01:00,
2013-04-26 23:06:00,50.7,50.7,30.13,ENE,67,3.1,3.1,100,0.00,,,0.39,VWS V13.01,2013-04-27 04:06:00,
2013-04-26 23:11:00,50.7,50.7,30.13,ENE,58,3.6,4.0,100,0.00,,,0.39,VWS V13.01,2013-04-27 04:11:00,
2013-04-26 23:16:00,50.9,50.9,30.13,ENE,64,3.1,3.6,100,0.00,,,0.39,VWS V13.01,2013-04-27 04:16:00,
2013-04-26 23:21:00,50.9,50.9,30.13,NE,37,2.7,2.7,100,0.00,,,0.39,VWS V13.01,2013-04-27 04:21:00,
2013-04-26 23:26:00,50.9,50.9,30.13,NE,39,2.7,3.6,100,0.00,,,0.39,VWS V13.01,2013-04-27 04:26:00,
2013-04-26 23:31:00,50.9,50.9,30.13,NE,47,2.2,2.7,100,0.00,,,0.39,VWS V13.01,2013-04-27 04:31:00,
2013-04-26 23:36:00,51.1,51.1,30.13,East,97,3.6,3.6,100,0.00,,,0.39,VWS V13.01,2013-04-27 04:36:00,
2013-04-26 23:41:00,51.1,51.1,30.13,NE,46,2.2,2.2,100,0.04,,,0.43,VWS V13.01,2013-04-27 04:41:00,
2013-04-26 23:46:00,51.1,51.1,30.13,NNE,33,3.1,3.1,100,0.04,,,0.43,VWS V13.01,2013-04-27 04:46:00,
2013-04-26 23:51:00,51.1,51.1,30.13,NE,39,3.6,3.6,100,0.04,,,0.43,VWS V13.01,2013-04-27 04:51:00,
2013-04-26 23:56:00,51.1,51.1,30.13,NE,45,3.1,4.0,100,0.04,,,0.43,VWS V13.01,2013-04-27 04:56:00,